sensor_id;sensor_type;location;lat;lon;timestamp;temperature;humidity
35497;DHT22;21609;49.298;6.844;2023-04-06T00:01:12;17.90;49.60
35497;DHT22;21609;49.298;6.844;2023-04-06T00:03:38;17.90;49.70
35497;DHT22;21609;49.298;6.844;2023-04-06T00:06:04;17.90;49.70
35497;DHT22;21609;49.298;6.844;2023-04-06T00:08:30;17.90;49.70
35497;DHT22;21609;49.298;6.844;2023-04-06T00:10:55;17.80;49.70
35497;DHT22;21609;49.298;6.844;2023-04-06T00:13:21;17.80;49.70
35497;DHT22;21609;49.298;6.844;2023-04-06T00:15:47;17.80;49.70
35497;DHT22;21609;49.298;6.844;2023-04-06T00:18:12;17.80;49.70
35497;DHT22;21609;49.298;6.844;2023-04-06T00:20:38;17.80;49.70
35497;DHT22;21609;49.298;6.844;2023-04-06T00:23:03;17.80;49.70
35497;DHT22;21609;49.298;6.844;2023-04-06T00:25:30;17.70;49.90
35497;DHT22;21609;49.298;6.844;2023-04-06T00:27:55;17.80;49.80
35497;DHT22;21609;49.298;6.844;2023-04-06T00:30:21;17.70;49.70
35497;DHT22;21609;49.298;6.844;2023-04-06T00:32:47;17.70;49.70
35497;DHT22;21609;49.298;6.844;2023-04-06T00:35:12;17.70;49.80
35497;DHT22;21609;49.298;6.844;2023-04-06T00:37:38;17.70;49.80
35497;DHT22;21609;49.298;6.844;2023-04-06T00:40:04;17.70;49.80
35497;DHT22;21609;49.298;6.844;2023-04-06T00:42:29;17.70;49.80
35497;DHT22;21609;49.298;6.844;2023-04-06T00:44:57;17.70;49.80
35497;DHT22;21609;49.298;6.844;2023-04-06T00:47:24;17.70;49.80
35497;DHT22;21609;49.298;6.844;2023-04-06T00:49:56;17.60;49.80
35497;DHT22;21609;49.298;6.844;2023-04-06T00:52:21;17.60;49.80
35497;DHT22;21609;49.298;6.844;2023-04-06T00:54:47;17.60;49.80
35497;DHT22;21609;49.298;6.844;2023-04-06T00:57:13;17.60;49.90
35497;DHT22;21609;49.298;6.844;2023-04-06T00:59:39;17.60;49.80
35497;DHT22;21609;49.298;6.844;2023-04-06T01:02:05;17.60;49.80
35497;DHT22;21609;49.298;6.844;2023-04-06T01:04:31;17.60;49.80
35497;DHT22;21609;49.298;6.844;2023-04-06T01:06:57;17.60;49.80
35497;DHT22;21609;49.298;6.844;2023-04-06T01:09:23;17.60;49.80
35497;DHT22;21609;49.298;6.844;2023-04-06T01:11:48;17.60;49.90
35497;DHT22;21609;49.298;6.844;2023-04-06T01:14:14;17.50;49.80
35497;DHT22;21609;49.298;6.844;2023-04-06T01:16:41;17.50;50.50
35497;DHT22;21609;49.298;6.844;2023-04-06T01:19:08;17.50;49.90
35497;DHT22;21609;49.298;6.844;2023-04-06T01:21:34;17.50;49.90
35497;DHT22;21609;49.298;6.844;2023-04-06T01:24:00;17.50;49.90
35497;DHT22;21609;49.298;6.844;2023-04-06T01:26:25;17.50;49.90
35497;DHT22;21609;49.298;6.844;2023-04-06T01:28:51;17.50;50.00
35497;DHT22;21609;49.298;6.844;2023-04-06T01:31:17;17.50;49.90
35497;DHT22;21609;49.298;6.844;2023-04-06T01:33:43;17.50;50.00
35497;DHT22;21609;49.298;6.844;2023-04-06T01:36:08;17.50;50.00
35497;DHT22;21609;49.298;6.844;2023-04-06T01:38:34;17.50;50.00
35497;DHT22;21609;49.298;6.844;2023-04-06T01:41:00;17.40;49.90
35497;DHT22;21609;49.298;6.844;2023-04-06T01:43:25;17.40;49.90
35497;DHT22;21609;49.298;6.844;2023-04-06T01:45:51;17.40;50.00
35497;DHT22;21609;49.298;6.844;2023-04-06T01:48:16;17.40;50.00
35497;DHT22;21609;49.298;6.844;2023-04-06T01:50:42;17.40;50.00
35497;DHT22;21609;49.298;6.844;2023-04-06T01:53:08;17.40;50.00
35497;DHT22;21609;49.298;6.844;2023-04-06T01:55:33;17.40;50.00
35497;DHT22;21609;49.298;6.844;2023-04-06T01:57:59;17.40;50.10
35497;DHT22;21609;49.298;6.844;2023-04-06T02:00:24;17.30;50.00
35497;DHT22;21609;49.298;6.844;2023-04-06T02:02:50;17.30;50.00
35497;DHT22;21609;49.298;6.844;2023-04-06T02:05:16;17.30;50.00
35497;DHT22;21609;49.298;6.844;2023-04-06T02:07:41;17.30;50.00
35497;DHT22;21609;49.298;6.844;2023-04-06T02:10:12;17.30;50.00
35497;DHT22;21609;49.298;6.844;2023-04-06T02:12:38;17.30;50.10
35497;DHT22;21609;49.298;6.844;2023-04-06T02:15:03;17.30;50.00
35497;DHT22;21609;49.298;6.844;2023-04-06T02:17:29;17.30;50.10
35497;DHT22;21609;49.298;6.844;2023-04-06T02:19:55;17.30;50.10
35497;DHT22;21609;49.298;6.844;2023-04-06T02:22:20;17.30;50.10
35497;DHT22;21609;49.298;6.844;2023-04-06T02:24:46;17.20;50.00
35497;DHT22;21609;49.298;6.844;2023-04-06T02:27:13;17.20;50.10
35497;DHT22;21609;49.298;6.844;2023-04-06T02:29:38;17.20;50.10
35497;DHT22;21609;49.298;6.844;2023-04-06T02:32:04;17.20;50.10
35497;DHT22;21609;49.298;6.844;2023-04-06T02:34:30;17.20;50.10
35497;DHT22;21609;49.298;6.844;2023-04-06T02:36:55;17.20;50.10
35497;DHT22;21609;49.298;6.844;2023-04-06T02:39:21;17.20;50.10
35497;DHT22;21609;49.298;6.844;2023-04-06T02:41:46;17.20;50.10
35497;DHT22;21609;49.298;6.844;2023-04-06T02:44:12;17.20;50.10
35497;DHT22;21609;49.298;6.844;2023-04-06T02:46:38;17.20;50.10
35497;DHT22;21609;49.298;6.844;2023-04-06T02:49:03;17.10;50.10
35497;DHT22;21609;49.298;6.844;2023-04-06T02:51:29;17.10;50.10
35497;DHT22;21609;49.298;6.844;2023-04-06T02:53:54;17.10;50.10
35497;DHT22;21609;49.298;6.844;2023-04-06T02:56:20;17.10;50.20
35497;DHT22;21609;49.298;6.844;2023-04-06T02:58:48;17.10;50.20
35497;DHT22;21609;49.298;6.844;2023-04-06T03:01:13;17.10;50.20
35497;DHT22;21609;49.298;6.844;2023-04-06T03:03:40;17.10;50.20
35497;DHT22;21609;49.298;6.844;2023-04-06T03:06:05;17.10;50.20
35497;DHT22;21609;49.298;6.844;2023-04-06T03:08:31;17.10;50.20
35497;DHT22;21609;49.298;6.844;2023-04-06T03:10:56;17.10;50.20
35497;DHT22;21609;49.298;6.844;2023-04-06T03:13:22;17.00;50.20
35497;DHT22;21609;49.298;6.844;2023-04-06T03:15:48;17.00;50.20
35497;DHT22;21609;49.298;6.844;2023-04-06T03:18:13;17.00;50.20
35497;DHT22;21609;49.298;6.844;2023-04-06T03:20:39;17.00;50.20
35497;DHT22;21609;49.298;6.844;2023-04-06T03:23:04;17.00;50.20
35497;DHT22;21609;49.298;6.844;2023-04-06T03:25:31;17.00;50.20
35497;DHT22;21609;49.298;6.844;2023-04-06T03:27:56;17.00;50.20
35497;DHT22;21609;49.298;6.844;2023-04-06T03:30:22;17.00;50.20
35497;DHT22;21609;49.298;6.844;2023-04-06T03:32:47;17.00;50.20
35497;DHT22;21609;49.298;6.844;2023-04-06T03:35:13;17.00;50.20
35497;DHT22;21609;49.298;6.844;2023-04-06T03:37:39;16.90;50.20
35497;DHT22;21609;49.298;6.844;2023-04-06T03:40:05;16.90;50.20
35497;DHT22;21609;49.298;6.844;2023-04-06T03:42:30;16.90;50.20
35497;DHT22;21609;49.298;6.844;2023-04-06T03:44:58;16.90;50.30
35497;DHT22;21609;49.298;6.844;2023-04-06T03:47:23;16.90;50.30
35497;DHT22;21609;49.298;6.844;2023-04-06T03:49:49;16.90;50.20
35497;DHT22;21609;49.298;6.844;2023-04-06T03:52:15;16.90;50.30
35497;DHT22;21609;49.298;6.844;2023-04-06T03:54:40;16.90;50.30
35497;DHT22;21609;49.298;6.844;2023-04-06T03:57:06;16.90;50.30
35497;DHT22;21609;49.298;6.844;2023-04-06T03:59:31;16.90;50.30
35497;DHT22;21609;49.298;6.844;2023-04-06T04:01:57;16.80;50.20
35497;DHT22;21609;49.298;6.844;2023-04-06T04:04:22;16.90;50.30
35497;DHT22;21609;49.298;6.844;2023-04-06T04:06:48;16.90;50.30
35497;DHT22;21609;49.298;6.844;2023-04-06T04:09:13;16.80;50.30
35497;DHT22;21609;49.298;6.844;2023-04-06T04:11:39;16.80;50.30
35497;DHT22;21609;49.298;6.844;2023-04-06T04:14:05;16.80;50.30
35497;DHT22;21609;49.298;6.844;2023-04-06T04:16:30;16.80;50.30
35497;DHT22;21609;49.298;6.844;2023-04-06T04:18:56;16.80;50.30
35497;DHT22;21609;49.298;6.844;2023-04-06T04:21:23;16.80;50.30
35497;DHT22;21609;49.298;6.844;2023-04-06T04:23:48;16.80;50.40
35497;DHT22;21609;49.298;6.844;2023-04-06T04:26:15;16.80;50.30
35497;DHT22;21609;49.298;6.844;2023-04-06T04:28:40;16.80;50.30
35497;DHT22;21609;49.298;6.844;2023-04-06T04:31:06;16.70;50.30
35497;DHT22;21609;49.298;6.844;2023-04-06T04:33:31;16.70;50.30
35497;DHT22;21609;49.298;6.844;2023-04-06T04:35:57;16.80;50.40
35497;DHT22;21609;49.298;6.844;2023-04-06T04:38:22;16.70;50.30
35497;DHT22;21609;49.298;6.844;2023-04-06T04:40:48;16.70;50.40
35497;DHT22;21609;49.298;6.844;2023-04-06T04:43:13;16.70;50.40
35497;DHT22;21609;49.298;6.844;2023-04-06T04:45:39;16.70;50.40
35497;DHT22;21609;49.298;6.844;2023-04-06T04:48:05;16.70;50.40
35497;DHT22;21609;49.298;6.844;2023-04-06T04:50:32;16.70;50.40
35497;DHT22;21609;49.298;6.844;2023-04-06T04:52:57;16.60;50.40
35497;DHT22;21609;49.298;6.844;2023-04-06T04:55:23;16.70;50.50
35497;DHT22;21609;49.298;6.844;2023-04-06T04:57:48;16.60;50.40
35497;DHT22;21609;49.298;6.844;2023-04-06T05:00:14;16.70;50.50
35497;DHT22;21609;49.298;6.844;2023-04-06T05:02:40;16.60;50.40
35497;DHT22;21609;49.298;6.844;2023-04-06T05:05:06;16.60;50.40
35497;DHT22;21609;49.298;6.844;2023-04-06T05:07:31;16.60;50.50
35497;DHT22;21609;49.298;6.844;2023-04-06T05:09:57;16.60;50.40
35497;DHT22;21609;49.298;6.844;2023-04-06T05:12:23;16.60;50.60
35497;DHT22;21609;49.298;6.844;2023-04-06T05:14:48;16.60;50.80
35497;DHT22;21609;49.298;6.844;2023-04-06T05:17:14;16.60;50.70
35497;DHT22;21609;49.298;6.844;2023-04-06T05:19:40;16.60;50.60
35497;DHT22;21609;49.298;6.844;2023-04-06T05:22:05;16.60;50.60
35497;DHT22;21609;49.298;6.844;2023-04-06T05:24:31;16.60;50.70
35497;DHT22;21609;49.298;6.844;2023-04-06T05:26:56;16.60;50.60
35497;DHT22;21609;49.298;6.844;2023-04-06T05:29:22;16.60;50.60
35497;DHT22;21609;49.298;6.844;2023-04-06T05:31:47;16.50;50.60
35497;DHT22;21609;49.298;6.844;2023-04-06T05:34:13;16.50;50.60
35497;DHT22;21609;49.298;6.844;2023-04-06T05:36:39;16.50;50.60
35497;DHT22;21609;49.298;6.844;2023-04-06T05:39:05;16.50;50.60
35497;DHT22;21609;49.298;6.844;2023-04-06T05:41:31;16.50;50.60
35497;DHT22;21609;49.298;6.844;2023-04-06T05:43:57;16.50;50.60
35497;DHT22;21609;49.298;6.844;2023-04-06T05:46:23;16.50;50.60
35497;DHT22;21609;49.298;6.844;2023-04-06T05:48:48;16.50;50.60
35497;DHT22;21609;49.298;6.844;2023-04-06T05:51:14;16.50;50.60
35497;DHT22;21609;49.298;6.844;2023-04-06T05:53:39;16.50;50.60
35497;DHT22;21609;49.298;6.844;2023-04-06T05:56:05;16.50;50.60
35497;DHT22;21609;49.298;6.844;2023-04-06T05:58:31;16.50;50.60
35497;DHT22;21609;49.298;6.844;2023-04-06T06:00:58;16.50;50.60
35497;DHT22;21609;49.298;6.844;2023-04-06T06:03:24;16.50;50.60
35497;DHT22;21609;49.298;6.844;2023-04-06T06:05:50;16.50;50.70
35497;DHT22;21609;49.298;6.844;2023-04-06T06:08:15;16.50;50.60
35497;DHT22;21609;49.298;6.844;2023-04-06T06:10:41;16.50;50.60
35497;DHT22;21609;49.298;6.844;2023-04-06T06:13:07;16.50;50.60
35497;DHT22;21609;49.298;6.844;2023-04-06T06:15:32;16.50;50.70
35497;DHT22;21609;49.298;6.844;2023-04-06T06:17:58;16.50;50.60
35497;DHT22;21609;49.298;6.844;2023-04-06T06:20:23;16.50;50.60
35497;DHT22;21609;49.298;6.844;2023-04-06T06:22:49;16.50;50.70
35497;DHT22;21609;49.298;6.844;2023-04-06T06:25:15;16.50;50.60
35497;DHT22;21609;49.298;6.844;2023-04-06T06:27:41;16.50;50.60
35497;DHT22;21609;49.298;6.844;2023-04-06T06:30:07;16.50;50.60
35497;DHT22;21609;49.298;6.844;2023-04-06T06:32:33;16.50;50.60
35497;DHT22;21609;49.298;6.844;2023-04-06T06:34:58;16.50;50.60
35497;DHT22;21609;49.298;6.844;2023-04-06T06:37:24;16.50;50.60
35497;DHT22;21609;49.298;6.844;2023-04-06T06:39:49;16.50;50.70
35497;DHT22;21609;49.298;6.844;2023-04-06T06:42:15;16.50;50.60
35497;DHT22;21609;49.298;6.844;2023-04-06T06:44:41;16.50;50.70
35497;DHT22;21609;49.298;6.844;2023-04-06T06:47:06;16.50;50.70
35497;DHT22;21609;49.298;6.844;2023-04-06T06:49:32;16.50;50.70
35497;DHT22;21609;49.298;6.844;2023-04-06T06:51:57;16.50;50.70
35497;DHT22;21609;49.298;6.844;2023-04-06T06:54:23;16.50;50.70
35497;DHT22;21609;49.298;6.844;2023-04-06T06:56:48;16.50;50.70
35497;DHT22;21609;49.298;6.844;2023-04-06T06:59:14;16.50;50.70
35497;DHT22;21609;49.298;6.844;2023-04-06T07:01:41;16.50;50.70
35497;DHT22;21609;49.298;6.844;2023-04-06T07:04:07;16.50;50.80
35497;DHT22;21609;49.298;6.844;2023-04-06T07:06:35;16.50;50.80
35497;DHT22;21609;49.298;6.844;2023-04-06T07:09:01;16.50;50.80
35497;DHT22;21609;49.298;6.844;2023-04-06T07:11:28;16.50;50.80
35497;DHT22;21609;49.298;6.844;2023-04-06T07:13:54;16.50;50.80
35497;DHT22;21609;49.298;6.844;2023-04-06T07:16:20;16.50;50.90
35497;DHT22;21609;49.298;6.844;2023-04-06T07:18:45;16.50;50.80
35497;DHT22;21609;49.298;6.844;2023-04-06T07:21:11;16.60;50.90
35497;DHT22;21609;49.298;6.844;2023-04-06T07:23:37;16.60;50.90
35497;DHT22;21609;49.298;6.844;2023-04-06T07:26:02;16.60;50.80
35497;DHT22;21609;49.298;6.844;2023-04-06T07:28:28;16.60;50.80
35497;DHT22;21609;49.298;6.844;2023-04-06T07:30:53;16.60;50.80
35497;DHT22;21609;49.298;6.844;2023-04-06T07:33:19;16.60;50.80
35497;DHT22;21609;49.298;6.844;2023-04-06T07:35:45;16.60;50.70
35497;DHT22;21609;49.298;6.844;2023-04-06T07:38:11;16.60;50.90
35497;DHT22;21609;49.298;6.844;2023-04-06T07:40:36;16.70;51.00
35497;DHT22;21609;49.298;6.844;2023-04-06T07:43:02;16.60;51.00
35497;DHT22;21609;49.298;6.844;2023-04-06T07:45:28;16.60;51.00
35497;DHT22;21609;49.298;6.844;2023-04-06T07:47:54;16.60;51.00
35497;DHT22;21609;49.298;6.844;2023-04-06T07:50:19;16.70;51.10
35497;DHT22;21609;49.298;6.844;2023-04-06T07:52:45;16.70;51.10
35497;DHT22;21609;49.298;6.844;2023-04-06T07:55:10;16.70;51.10
35497;DHT22;21609;49.298;6.844;2023-04-06T07:57:36;16.70;51.10
35497;DHT22;21609;49.298;6.844;2023-04-06T08:00:02;16.70;51.10
35497;DHT22;21609;49.298;6.844;2023-04-06T08:02:29;16.70;51.10
35497;DHT22;21609;49.298;6.844;2023-04-06T08:04:55;16.70;51.00
35497;DHT22;21609;49.298;6.844;2023-04-06T08:07:20;16.80;51.10
35497;DHT22;21609;49.298;6.844;2023-04-06T08:09:46;16.80;51.00
35497;DHT22;21609;49.298;6.844;2023-04-06T08:12:12;16.80;51.00
35497;DHT22;21609;49.298;6.844;2023-04-06T08:14:37;16.80;51.00
35497;DHT22;21609;49.298;6.844;2023-04-06T08:17:03;16.80;51.00
35497;DHT22;21609;49.298;6.844;2023-04-06T08:19:28;16.90;51.00
35497;DHT22;21609;49.298;6.844;2023-04-06T08:21:54;16.80;50.90
35497;DHT22;21609;49.298;6.844;2023-04-06T08:24:19;16.80;50.80
35497;DHT22;21609;49.298;6.844;2023-04-06T08:26:45;16.80;50.90
35497;DHT22;21609;49.298;6.844;2023-04-06T08:29:11;16.90;50.80
35497;DHT22;21609;49.298;6.844;2023-04-06T08:31:37;16.90;50.90
35497;DHT22;21609;49.298;6.844;2023-04-06T08:34:05;16.90;50.80
35497;DHT22;21609;49.298;6.844;2023-04-06T08:36:31;16.90;50.80
35497;DHT22;21609;49.298;6.844;2023-04-06T08:38:57;16.90;50.80
35497;DHT22;21609;49.298;6.844;2023-04-06T08:41:22;16.90;50.80
35497;DHT22;21609;49.298;6.844;2023-04-06T08:43:50;16.90;50.80
35497;DHT22;21609;49.298;6.844;2023-04-06T08:46:18;16.90;50.80
35497;DHT22;21609;49.298;6.844;2023-04-06T08:48:45;16.90;50.70
35497;DHT22;21609;49.298;6.844;2023-04-06T08:51:11;17.00;50.80
35497;DHT22;21609;49.298;6.844;2023-04-06T08:53:37;17.00;50.70
35497;DHT22;21609;49.298;6.844;2023-04-06T08:56:04;17.00;50.70
35497;DHT22;21609;49.298;6.844;2023-04-06T08:58:35;17.00;50.70
35497;DHT22;21609;49.298;6.844;2023-04-06T09:01:05;17.00;50.70
35497;DHT22;21609;49.298;6.844;2023-04-06T09:03:32;17.00;50.60
35497;DHT22;21609;49.298;6.844;2023-04-06T09:05:59;17.00;50.70
35497;DHT22;21609;49.298;6.844;2023-04-06T09:08:25;17.10;50.60
35497;DHT22;21609;49.298;6.844;2023-04-06T09:10:50;17.10;50.50
35497;DHT22;21609;49.298;6.844;2023-04-06T09:13:17;17.10;50.50
35497;DHT22;21609;49.298;6.844;2023-04-06T09:15:42;17.10;50.40
35497;DHT22;21609;49.298;6.844;2023-04-06T09:18:08;17.10;50.40
35497;DHT22;21609;49.298;6.844;2023-04-06T09:20:34;17.10;50.40
35497;DHT22;21609;49.298;6.844;2023-04-06T09:22:59;17.20;50.50
35497;DHT22;21609;49.298;6.844;2023-04-06T09:25:25;17.20;50.50
35497;DHT22;21609;49.298;6.844;2023-04-06T09:28:02;17.20;50.50
35497;DHT22;21609;49.298;6.844;2023-04-06T09:30:28;17.10;50.30
35497;DHT22;21609;49.298;6.844;2023-04-06T09:32:55;17.20;50.20
35497;DHT22;21609;49.298;6.844;2023-04-06T09:35:22;17.20;50.20
35497;DHT22;21609;49.298;6.844;2023-04-06T09:37:50;17.30;50.30
35497;DHT22;21609;49.298;6.844;2023-04-06T09:40:16;17.30;50.30
35497;DHT22;21609;49.298;6.844;2023-04-06T09:42:49;17.30;50.60
35497;DHT22;21609;49.298;6.844;2023-04-06T09:45:17;17.20;50.20
35497;DHT22;21609;49.298;6.844;2023-04-06T09:47:44;17.30;50.30
35497;DHT22;21609;49.298;6.844;2023-04-06T09:50:11;17.20;50.40
35497;DHT22;21609;49.298;6.844;2023-04-06T09:52:41;17.20;50.30
35497;DHT22;21609;49.298;6.844;2023-04-06T09:55:08;17.20;50.60
35497;DHT22;21609;49.298;6.844;2023-04-06T09:57:41;17.20;50.80
35497;DHT22;21609;49.298;6.844;2023-04-06T10:00:09;17.20;50.80
35497;DHT22;21609;49.298;6.844;2023-04-06T10:08:25;17.20;51.10
35497;DHT22;21609;49.298;6.844;2023-04-06T10:10:53;17.20;51.10
35497;DHT22;21609;49.298;6.844;2023-04-06T10:13:19;17.20;50.90
35497;DHT22;21609;49.298;6.844;2023-04-06T10:15:45;17.20;51.00
35497;DHT22;21609;49.298;6.844;2023-04-06T10:18:11;17.20;50.80
35497;DHT22;21609;49.298;6.844;2023-04-06T10:20:49;17.20;50.90
35497;DHT22;21609;49.298;6.844;2023-04-06T10:25:54;17.20;50.70
35497;DHT22;21609;49.298;6.844;2023-04-06T10:28:20;17.30;50.70
35497;DHT22;21609;49.298;6.844;2023-04-06T10:30:45;17.20;50.70
35497;DHT22;21609;49.298;6.844;2023-04-06T10:33:15;17.20;50.50
35497;DHT22;21609;49.298;6.844;2023-04-06T10:35:41;17.30;50.70
35497;DHT22;21609;49.298;6.844;2023-04-06T10:38:07;17.20;50.90
35497;DHT22;21609;49.298;6.844;2023-04-06T10:40:36;17.20;50.90
35497;DHT22;21609;49.298;6.844;2023-04-06T10:43:12;17.30;51.00
35497;DHT22;21609;49.298;6.844;2023-04-06T10:45:39;17.30;51.00
35497;DHT22;21609;49.298;6.844;2023-04-06T10:48:15;17.30;51.00
35497;DHT22;21609;49.298;6.844;2023-04-06T10:50:44;17.20;50.60
35497;DHT22;21609;49.298;6.844;2023-04-06T10:53:10;17.20;51.50
35497;DHT22;21609;49.298;6.844;2023-04-06T10:55:39;17.30;51.00
35497;DHT22;21609;49.298;6.844;2023-04-06T10:58:08;17.30;50.80
35497;DHT22;21609;49.298;6.844;2023-04-06T11:00:34;17.30;50.60
35497;DHT22;21609;49.298;6.844;2023-04-06T11:03:00;17.30;50.60
35497;DHT22;21609;49.298;6.844;2023-04-06T11:05:29;17.30;50.60
35497;DHT22;21609;49.298;6.844;2023-04-06T11:07:56;17.40;50.60
35497;DHT22;21609;49.298;6.844;2023-04-06T11:10:22;17.40;50.30
35497;DHT22;21609;49.298;6.844;2023-04-06T11:12:53;17.40;50.30
35497;DHT22;21609;49.298;6.844;2023-04-06T11:15:20;17.40;50.30
35497;DHT22;21609;49.298;6.844;2023-04-06T11:17:45;17.40;50.30
35497;DHT22;21609;49.298;6.844;2023-04-06T11:20:11;17.40;50.40
35497;DHT22;21609;49.298;6.844;2023-04-06T11:22:51;17.40;50.30
35497;DHT22;21609;49.298;6.844;2023-04-06T11:25:17;17.40;50.20
35497;DHT22;21609;49.298;6.844;2023-04-06T11:27:43;17.50;50.10
35497;DHT22;21609;49.298;6.844;2023-04-06T11:30:10;17.50;50.10
35497;DHT22;21609;49.298;6.844;2023-04-06T11:32:43;17.50;50.10
35497;DHT22;21609;49.298;6.844;2023-04-06T11:35:22;17.50;50.10
35497;DHT22;21609;49.298;6.844;2023-04-06T11:37:49;17.50;50.10
35497;DHT22;21609;49.298;6.844;2023-04-06T11:40:15;17.50;50.10
35497;DHT22;21609;49.298;6.844;2023-04-06T11:42:52;17.50;50.00
35497;DHT22;21609;49.298;6.844;2023-04-06T11:45:17;17.50;50.00
35497;DHT22;21609;49.298;6.844;2023-04-06T11:47:43;17.60;50.00
35497;DHT22;21609;49.298;6.844;2023-04-06T11:50:13;17.50;50.00
35497;DHT22;21609;49.298;6.844;2023-04-06T11:52:42;17.50;50.00
35497;DHT22;21609;49.298;6.844;2023-04-06T11:55:16;17.50;50.60
35497;DHT22;21609;49.298;6.844;2023-04-06T11:57:42;17.50;50.00
35497;DHT22;21609;49.298;6.844;2023-04-06T12:00:09;17.50;50.00
35497;DHT22;21609;49.298;6.844;2023-04-06T12:02:36;17.50;49.90
35497;DHT22;21609;49.298;6.844;2023-04-06T12:05:03;17.50;49.90
35497;DHT22;21609;49.298;6.844;2023-04-06T12:07:29;17.50;49.80
35497;DHT22;21609;49.298;6.844;2023-04-06T12:09:55;17.50;49.80
35497;DHT22;21609;49.298;6.844;2023-04-06T12:12:21;17.50;49.70
35497;DHT22;21609;49.298;6.844;2023-04-06T12:14:46;17.50;49.90
35497;DHT22;21609;49.298;6.844;2023-04-06T12:17:12;17.50;49.80
35497;DHT22;21609;49.298;6.844;2023-04-06T12:19:37;17.50;49.80
35497;DHT22;21609;49.298;6.844;2023-04-06T12:22:03;17.50;49.70
35497;DHT22;21609;49.298;6.844;2023-04-06T12:24:29;17.50;49.70
35497;DHT22;21609;49.298;6.844;2023-04-06T12:26:54;17.50;49.70
35497;DHT22;21609;49.298;6.844;2023-04-06T12:29:20;17.50;49.70
35497;DHT22;21609;49.298;6.844;2023-04-06T12:31:46;17.50;49.70
35497;DHT22;21609;49.298;6.844;2023-04-06T12:34:11;17.50;49.60
35497;DHT22;21609;49.298;6.844;2023-04-06T12:36:37;17.60;49.70
35497;DHT22;21609;49.298;6.844;2023-04-06T12:39:04;17.60;49.80
35497;DHT22;21609;49.298;6.844;2023-04-06T12:41:30;17.50;49.70
35497;DHT22;21609;49.298;6.844;2023-04-06T12:43:56;17.50;49.80
35497;DHT22;21609;49.298;6.844;2023-04-06T12:46:22;17.60;49.90
35497;DHT22;21609;49.298;6.844;2023-04-06T12:48:48;17.60;49.90
35497;DHT22;21609;49.298;6.844;2023-04-06T12:51:14;17.60;49.80
35497;DHT22;21609;49.298;6.844;2023-04-06T12:53:40;17.70;49.80
35497;DHT22;21609;49.298;6.844;2023-04-06T12:56:16;17.60;49.70
35497;DHT22;21609;49.298;6.844;2023-04-06T12:58:43;17.60;49.70
35497;DHT22;21609;49.298;6.844;2023-04-06T13:01:09;17.70;49.70
35497;DHT22;21609;49.298;6.844;2023-04-06T13:03:34;17.70;49.70
35497;DHT22;21609;49.298;6.844;2023-04-06T13:06:01;17.70;49.70
35497;DHT22;21609;49.298;6.844;2023-04-06T13:08:27;17.70;49.70
35497;DHT22;21609;49.298;6.844;2023-04-06T13:10:53;17.70;49.80
35497;DHT22;21609;49.298;6.844;2023-04-06T13:13:25;17.60;49.80
35497;DHT22;21609;49.298;6.844;2023-04-06T13:15:53;17.60;49.80
35497;DHT22;21609;49.298;6.844;2023-04-06T13:18:18;17.60;49.80
35497;DHT22;21609;49.298;6.844;2023-04-06T13:20:44;17.60;49.80
35497;DHT22;21609;49.298;6.844;2023-04-06T13:23:11;17.60;49.80
35497;DHT22;21609;49.298;6.844;2023-04-06T13:25:37;17.70;49.80
35497;DHT22;21609;49.298;6.844;2023-04-06T13:28:02;17.70;49.80
35497;DHT22;21609;49.298;6.844;2023-04-06T13:30:28;17.70;49.70
35497;DHT22;21609;49.298;6.844;2023-04-06T13:32:54;17.70;49.80
35497;DHT22;21609;49.298;6.844;2023-04-06T13:35:19;17.70;49.70
35497;DHT22;21609;49.298;6.844;2023-04-06T13:37:45;17.70;49.80
35497;DHT22;21609;49.298;6.844;2023-04-06T13:40:11;17.70;49.80
35497;DHT22;21609;49.298;6.844;2023-04-06T13:42:37;17.70;49.80
35497;DHT22;21609;49.298;6.844;2023-04-06T13:45:06;17.70;49.90
35497;DHT22;21609;49.298;6.844;2023-04-06T13:47:32;17.70;49.90
35497;DHT22;21609;49.298;6.844;2023-04-06T13:49:57;17.70;49.90
35497;DHT22;21609;49.298;6.844;2023-04-06T13:52:23;17.60;49.80
35497;DHT22;21609;49.298;6.844;2023-04-06T13:54:49;17.60;49.90
35497;DHT22;21609;49.298;6.844;2023-04-06T13:57:15;17.60;49.90
35497;DHT22;21609;49.298;6.844;2023-04-06T13:59:41;17.60;50.00
35497;DHT22;21609;49.298;6.844;2023-04-06T14:02:09;17.60;50.00
35497;DHT22;21609;49.298;6.844;2023-04-06T14:04:35;17.60;50.10
35497;DHT22;21609;49.298;6.844;2023-04-06T14:07:02;17.60;50.10
35497;DHT22;21609;49.298;6.844;2023-04-06T14:09:29;17.60;50.10
35497;DHT22;21609;49.298;6.844;2023-04-06T14:11:55;17.60;50.10
35497;DHT22;21609;49.298;6.844;2023-04-06T14:14:22;17.60;50.10
35497;DHT22;21609;49.298;6.844;2023-04-06T14:16:48;17.60;50.20
35497;DHT22;21609;49.298;6.844;2023-04-06T14:19:15;17.60;50.10
35497;DHT22;21609;49.298;6.844;2023-04-06T14:21:41;17.60;50.10
35497;DHT22;21609;49.298;6.844;2023-04-06T14:24:09;17.60;50.10
35497;DHT22;21609;49.298;6.844;2023-04-06T14:26:35;17.60;50.10
35497;DHT22;21609;49.298;6.844;2023-04-06T14:29:05;17.60;50.10
35497;DHT22;21609;49.298;6.844;2023-04-06T14:31:31;17.60;50.10
35497;DHT22;21609;49.298;6.844;2023-04-06T14:33:57;17.60;50.10
35497;DHT22;21609;49.298;6.844;2023-04-06T14:36:23;17.60;50.10
35497;DHT22;21609;49.298;6.844;2023-04-06T14:38:49;17.60;50.20
35497;DHT22;21609;49.298;6.844;2023-04-06T14:41:16;17.60;50.10
35497;DHT22;21609;49.298;6.844;2023-04-06T14:43:42;17.50;50.10
35497;DHT22;21609;49.298;6.844;2023-04-06T14:46:07;17.60;50.20
35497;DHT22;21609;49.298;6.844;2023-04-06T14:48:34;17.50;50.10
35497;DHT22;21609;49.298;6.844;2023-04-06T14:51:00;17.60;50.20
35497;DHT22;21609;49.298;6.844;2023-04-06T14:53:26;17.50;50.10
35497;DHT22;21609;49.298;6.844;2023-04-06T14:55:53;17.50;50.20
35497;DHT22;21609;49.298;6.844;2023-04-06T14:58:19;17.50;50.20
35497;DHT22;21609;49.298;6.844;2023-04-06T15:00:45;17.50;50.20
35497;DHT22;21609;49.298;6.844;2023-04-06T15:03:11;17.50;50.20
35497;DHT22;21609;49.298;6.844;2023-04-06T15:05:36;17.50;50.20
35497;DHT22;21609;49.298;6.844;2023-04-06T15:08:02;17.40;50.20
35497;DHT22;21609;49.298;6.844;2023-04-06T15:10:31;17.40;50.20
35497;DHT22;21609;49.298;6.844;2023-04-06T15:12:56;17.40;50.20
35497;DHT22;21609;49.298;6.844;2023-04-06T15:15:22;17.40;50.30
35497;DHT22;21609;49.298;6.844;2023-04-06T15:17:47;17.40;50.30
35497;DHT22;21609;49.298;6.844;2023-04-06T15:20:13;17.40;50.30
35497;DHT22;21609;49.298;6.844;2023-04-06T15:22:38;17.40;50.40
35497;DHT22;21609;49.298;6.844;2023-04-06T15:25:04;17.40;50.40
35497;DHT22;21609;49.298;6.844;2023-04-06T15:27:30;17.40;50.40
35497;DHT22;21609;49.298;6.844;2023-04-06T15:29:56;17.40;50.50
35497;DHT22;21609;49.298;6.844;2023-04-06T15:32:24;17.40;50.50